sensor_id;sensor_type;location;lat;lon;timestamp;temperature;humidity
32027;DHT22;18543;50.848;4.596;2022-11-04T00:01:54;23.10;60.20
32027;DHT22;18543;50.848;4.596;2022-11-04T00:04:24;23.10;60.10
32027;DHT22;18543;50.848;4.596;2022-11-04T00:06:51;23.10;60.10
32027;DHT22;18543;50.848;4.596;2022-11-04T00:09:21;23.10;60.10
32027;DHT22;18543;50.848;4.596;2022-11-04T00:11:49;23.10;60.10
32027;DHT22;18543;50.848;4.596;2022-11-04T00:14:34;23.10;60.10
32027;DHT22;18543;50.848;4.596;2022-11-04T00:17:02;23.10;60.20
32027;DHT22;18543;50.848;4.596;2022-11-04T00:19:52;23.10;60.10
32027;DHT22;18543;50.848;4.596;2022-11-04T00:22:41;23.00;60.10
32027;DHT22;18543;50.848;4.596;2022-11-04T00:25:26;23.00;60.10
32027;DHT22;18543;50.848;4.596;2022-11-04T00:28:17;23.00;60.00
32027;DHT22;18543;50.848;4.596;2022-11-04T00:31:05;23.00;60.20
32027;DHT22;18543;50.848;4.596;2022-11-04T00:33:52;23.00;60.00
32027;DHT22;18543;50.848;4.596;2022-11-04T00:36:19;23.00;60.00
32027;DHT22;18543;50.848;4.596;2022-11-04T00:38:46;23.00;60.00
32027;DHT22;18543;50.848;4.596;2022-11-04T00:41:13;23.00;60.00
32027;DHT22;18543;50.848;4.596;2022-11-04T00:43:58;23.00;60.00
32027;DHT22;18543;50.848;4.596;2022-11-04T00:46:27;23.00;59.90
32027;DHT22;18543;50.848;4.596;2022-11-04T00:48:54;23.00;59.90
32027;DHT22;18543;50.848;4.596;2022-11-04T00:51:21;23.00;59.90
32027;DHT22;18543;50.848;4.596;2022-11-04T00:53:48;23.00;59.80
32027;DHT22;18543;50.848;4.596;2022-11-04T00:56:15;23.00;59.80
32027;DHT22;18543;50.848;4.596;2022-11-04T00:58:45;23.00;59.80
32027;DHT22;18543;50.848;4.596;2022-11-04T01:01:14;23.00;60.30
32027;DHT22;18543;50.848;4.596;2022-11-04T01:03:49;23.00;59.80
32027;DHT22;18543;50.848;4.596;2022-11-04T01:06:17;23.00;59.80
32027;DHT22;18543;50.848;4.596;2022-11-04T01:08:46;23.00;59.80
32027;DHT22;18543;50.848;4.596;2022-11-04T01:11:13;23.00;59.80
32027;DHT22;18543;50.848;4.596;2022-11-04T01:13:41;23.00;59.70
32027;DHT22;18543;50.848;4.596;2022-11-04T01:16:10;23.00;59.80
32027;DHT22;18543;50.848;4.596;2022-11-04T01:18:37;23.00;59.80
32027;DHT22;18543;50.848;4.596;2022-11-04T01:21:05;23.00;59.80
32027;DHT22;18543;50.848;4.596;2022-11-04T01:23:33;23.00;59.80
32027;DHT22;18543;50.848;4.596;2022-11-04T01:26:03;23.00;59.90
32027;DHT22;18543;50.848;4.596;2022-11-04T01:28:30;23.00;59.80
32027;DHT22;18543;50.848;4.596;2022-11-04T01:30:56;23.00;59.70
32027;DHT22;18543;50.848;4.596;2022-11-04T01:33:25;23.00;59.80
32027;DHT22;18543;50.848;4.596;2022-11-04T01:35:52;23.00;59.70
32027;DHT22;18543;50.848;4.596;2022-11-04T01:38:19;23.00;59.80
32027;DHT22;18543;50.848;4.596;2022-11-04T01:40:46;23.00;59.80
32027;DHT22;18543;50.848;4.596;2022-11-04T01:43:18;23.00;59.80
32027;DHT22;18543;50.848;4.596;2022-11-04T01:45:52;23.00;59.70
32027;DHT22;18543;50.848;4.596;2022-11-04T01:48:31;23.00;59.70
32027;DHT22;18543;50.848;4.596;2022-11-04T01:50:59;23.00;59.70
32027;DHT22;18543;50.848;4.596;2022-11-04T01:53:36;23.00;59.70
32027;DHT22;18543;50.848;4.596;2022-11-04T01:56:08;23.00;59.60
32027;DHT22;18543;50.848;4.596;2022-11-04T01:58:51;23.00;59.60
32027;DHT22;18543;50.848;4.596;2022-11-04T02:01:19;23.00;59.60
32027;DHT22;18543;50.848;4.596;2022-11-04T02:03:55;23.00;59.60
32027;DHT22;18543;50.848;4.596;2022-11-04T02:06:45;23.00;59.60
32027;DHT22;18543;50.848;4.596;2022-11-04T02:09:13;23.00;59.60
32027;DHT22;18543;50.848;4.596;2022-11-04T02:11:40;23.00;59.50
32027;DHT22;18543;50.848;4.596;2022-11-04T02:14:25;23.00;59.50
32027;DHT22;18543;50.848;4.596;2022-11-04T02:16:56;23.00;59.50
32027;DHT22;18543;50.848;4.596;2022-11-04T02:19:54;23.00;60.00
32027;DHT22;18543;50.848;4.596;2022-11-04T02:25:35;23.10;59.40
32027;DHT22;18543;50.848;4.596;2022-11-04T02:31:01;23.10;59.30
32027;DHT22;18543;50.848;4.596;2022-11-04T02:42:13;23.10;59.20
32027;DHT22;18543;50.848;4.596;2022-11-04T02:44:53;23.10;59.20
32027;DHT22;18543;50.848;4.596;2022-11-04T02:47:28;23.10;59.20
32027;DHT22;18543;50.848;4.596;2022-11-04T02:50:11;23.20;59.20
32027;DHT22;18543;50.848;4.596;2022-11-04T02:55:25;23.10;59.00
32027;DHT22;18543;50.848;4.596;2022-11-04T02:57:55;23.20;59.10
32027;DHT22;18543;50.848;4.596;2022-11-04T03:00:24;23.20;59.20
32027;DHT22;18543;50.848;4.596;2022-11-04T03:03:24;23.20;59.10
32027;DHT22;18543;50.848;4.596;2022-11-04T03:05:53;23.20;59.00
32027;DHT22;18543;50.848;4.596;2022-11-04T03:08:28;23.20;59.00
32027;DHT22;18543;50.848;4.596;2022-11-04T03:11:02;23.20;59.00
32027;DHT22;18543;50.848;4.596;2022-11-04T03:13:38;23.20;58.90
32027;DHT22;18543;50.848;4.596;2022-11-04T03:16:16;23.20;58.90
32027;DHT22;18543;50.848;4.596;2022-11-04T03:18:56;23.20;59.00
32027;DHT22;18543;50.848;4.596;2022-11-04T03:21:28;23.30;59.00
32027;DHT22;18543;50.848;4.596;2022-11-04T03:24:00;23.30;59.00
32027;DHT22;18543;50.848;4.596;2022-11-04T03:26:57;23.20;58.90
32027;DHT22;18543;50.848;4.596;2022-11-04T03:29:34;23.20;58.90
32027;DHT22;18543;50.848;4.596;2022-11-04T03:34:44;23.30;59.00
32027;DHT22;18543;50.848;4.596;2022-11-04T03:37:11;23.30;58.90
32027;DHT22;18543;50.848;4.596;2022-11-04T03:39:38;23.30;58.90
32027;DHT22;18543;50.848;4.596;2022-11-04T03:42:08;23.30;59.00
32027;DHT22;18543;50.848;4.596;2022-11-04T03:44:52;23.30;58.90
32027;DHT22;18543;50.848;4.596;2022-11-04T03:47:29;23.30;58.80
32027;DHT22;18543;50.848;4.596;2022-11-04T03:52:33;23.40;58.90
32027;DHT22;18543;50.848;4.596;2022-11-04T03:55:02;23.30;58.90
32027;DHT22;18543;50.848;4.596;2022-11-04T03:57:47;23.40;58.80
32027;DHT22;18543;50.848;4.596;2022-11-04T04:00:17;23.30;58.80
32027;DHT22;18543;50.848;4.596;2022-11-04T04:03:08;23.30;58.80
32027;DHT22;18543;50.848;4.596;2022-11-04T04:05:38;23.40;58.80
32027;DHT22;18543;50.848;4.596;2022-11-04T04:14:00;23.40;58.90
32027;DHT22;18543;50.848;4.596;2022-11-04T04:16:30;23.40;58.80
32027;DHT22;18543;50.848;4.596;2022-11-04T04:21:44;23.50;58.80
32027;DHT22;18543;50.848;4.596;2022-11-04T04:24:14;23.40;58.80
32027;DHT22;18543;50.848;4.596;2022-11-04T04:27:01;23.50;58.80
32027;DHT22;18543;50.848;4.596;2022-11-04T04:29:50;23.50;58.80
32027;DHT22;18543;50.848;4.596;2022-11-04T04:32:20;23.40;58.80
32027;DHT22;18543;50.848;4.596;2022-11-04T04:34:48;23.40;58.70
32027;DHT22;18543;50.848;4.596;2022-11-04T04:37:22;23.50;58.90
32027;DHT22;18543;50.848;4.596;2022-11-04T04:39:54;23.50;58.80
32027;DHT22;18543;50.848;4.596;2022-11-04T04:42:45;23.50;58.80
32027;DHT22;18543;50.848;4.596;2022-11-04T04:45:35;23.50;58.70
32027;DHT22;18543;50.848;4.596;2022-11-04T04:48:03;23.50;58.70
32027;DHT22;18543;50.848;4.596;2022-11-04T04:50:36;23.50;58.70
32027;DHT22;18543;50.848;4.596;2022-11-04T04:53:03;23.50;58.70
32027;DHT22;18543;50.848;4.596;2022-11-04T04:55:29;23.50;58.70
32027;DHT22;18543;50.848;4.596;2022-11-04T04:58:09;23.50;58.60
32027;DHT22;18543;50.848;4.596;2022-11-04T05:00:36;23.50;58.60
32027;DHT22;18543;50.848;4.596;2022-11-04T05:03:03;23.50;58.60
32027;DHT22;18543;50.848;4.596;2022-11-04T05:05:33;23.50;58.60
32027;DHT22;18543;50.848;4.596;2022-11-04T05:08:06;23.50;58.70
32027;DHT22;18543;50.848;4.596;2022-11-04T05:10:34;23.60;58.70
32027;DHT22;18543;50.848;4.596;2022-11-04T05:13:00;23.60;58.60
32027;DHT22;18543;50.848;4.596;2022-11-04T05:15:46;23.60;58.60
32027;DHT22;18543;50.848;4.596;2022-11-04T05:18:15;23.60;58.60
32027;DHT22;18543;50.848;4.596;2022-11-04T05:20:42;23.60;58.60
32027;DHT22;18543;50.848;4.596;2022-11-04T05:23:08;23.60;58.60
32027;DHT22;18543;50.848;4.596;2022-11-04T05:25:38;23.60;58.60
32027;DHT22;18543;50.848;4.596;2022-11-04T05:28:05;23.60;58.60
32027;DHT22;18543;50.848;4.596;2022-11-04T05:30:33;23.60;58.60
32027;DHT22;18543;50.848;4.596;2022-11-04T05:33:00;23.60;58.50
32027;DHT22;18543;50.848;4.596;2022-11-04T05:35:31;23.60;58.50
32027;DHT22;18543;50.848;4.596;2022-11-04T05:37:58;23.60;58.50
32027;DHT22;18543;50.848;4.596;2022-11-04T05:40:25;23.60;58.70
32027;DHT22;18543;50.848;4.596;2022-11-04T05:42:52;23.60;58.50
32027;DHT22;18543;50.848;4.596;2022-11-04T05:45:19;23.60;58.50
32027;DHT22;18543;50.848;4.596;2022-11-04T05:47:45;23.60;58.50
32027;DHT22;18543;50.848;4.596;2022-11-04T05:50:15;23.70;58.60
32027;DHT22;18543;50.848;4.596;2022-11-04T05:52:42;23.70;58.60
32027;DHT22;18543;50.848;4.596;2022-11-04T05:55:09;23.60;58.50
32027;DHT22;18543;50.848;4.596;2022-11-04T05:57:35;23.70;58.60
32027;DHT22;18543;50.848;4.596;2022-11-04T06:00:03;23.70;58.60
32027;DHT22;18543;50.848;4.596;2022-11-04T06:02:30;23.70;58.50
32027;DHT22;18543;50.848;4.596;2022-11-04T06:04:57;23.70;58.50
32027;DHT22;18543;50.848;4.596;2022-11-04T06:07:24;23.60;58.50
32027;DHT22;18543;50.848;4.596;2022-11-04T06:09:51;23.70;58.50
32027;DHT22;18543;50.848;4.596;2022-11-04T06:12:17;23.70;58.50
32027;DHT22;18543;50.848;4.596;2022-11-04T06:14:44;23.70;58.50
32027;DHT22;18543;50.848;4.596;2022-11-04T06:17:19;23.70;58.60
32027;DHT22;18543;50.848;4.596;2022-11-04T06:19:46;23.70;58.50
32027;DHT22;18543;50.848;4.596;2022-11-04T06:22:15;23.70;58.50
32027;DHT22;18543;50.848;4.596;2022-11-04T06:24:42;23.70;58.50
32027;DHT22;18543;50.848;4.596;2022-11-04T06:27:09;23.70;58.50
32027;DHT22;18543;50.848;4.596;2022-11-04T06:29:37;23.70;58.50
32027;DHT22;18543;50.848;4.596;2022-11-04T06:32:17;23.70;58.50
32027;DHT22;18543;50.848;4.596;2022-11-04T06:34:44;23.70;58.50
32027;DHT22;18543;50.848;4.596;2022-11-04T06:37:11;23.70;58.50
32027;DHT22;18543;50.848;4.596;2022-11-04T06:39:38;23.80;58.60
32027;DHT22;18543;50.848;4.596;2022-11-04T06:42:05;23.70;58.50
32027;DHT22;18543;50.848;4.596;2022-11-04T06:44:32;23.80;58.60
32027;DHT22;18543;50.848;4.596;2022-11-04T06:47:03;23.80;58.50
32027;DHT22;18543;50.848;4.596;2022-11-04T06:49:29;23.70;58.50
32027;DHT22;18543;50.848;4.596;2022-11-04T06:51:56;23.80;58.60
32027;DHT22;18543;50.848;4.596;2022-11-04T06:54:23;23.70;58.50
32027;DHT22;18543;50.848;4.596;2022-11-04T06:56:50;23.80;58.60
32027;DHT22;18543;50.848;4.596;2022-11-04T06:59:19;23.70;58.50
32027;DHT22;18543;50.848;4.596;2022-11-04T07:01:48;23.80;58.60
32027;DHT22;18543;50.848;4.596;2022-11-04T07:04:15;23.80;58.50
32027;DHT22;18543;50.848;4.596;2022-11-04T07:06:42;23.80;58.60
32027;DHT22;18543;50.848;4.596;2022-11-04T07:09:13;23.70;58.50
32027;DHT22;18543;50.848;4.596;2022-11-04T07:11:41;23.80;58.60
32027;DHT22;18543;50.848;4.596;2022-11-04T07:14:09;23.80;58.60
32027;DHT22;18543;50.848;4.596;2022-11-04T07:16:36;23.80;58.60
32027;DHT22;18543;50.848;4.596;2022-11-04T07:19:03;23.80;58.60
32027;DHT22;18543;50.848;4.596;2022-11-04T07:21:31;23.80;58.60
32027;DHT22;18543;50.848;4.596;2022-11-04T07:23:59;23.80;58.50
32027;DHT22;18543;50.848;4.596;2022-11-04T07:26:27;23.80;58.60
32027;DHT22;18543;50.848;4.596;2022-11-04T07:28:54;23.80;58.60
32027;DHT22;18543;50.848;4.596;2022-11-04T07:31:23;23.80;58.60
32027;DHT22;18543;50.848;4.596;2022-11-04T07:33:49;23.80;58.60
32027;DHT22;18543;50.848;4.596;2022-11-04T07:36:17;23.80;58.60
32027;DHT22;18543;50.848;4.596;2022-11-04T07:38:45;23.70;58.60
32027;DHT22;18543;50.848;4.596;2022-11-04T07:41:12;23.70;58.60
32027;DHT22;18543;50.848;4.596;2022-11-04T07:43:39;23.70;58.60
32027;DHT22;18543;50.848;4.596;2022-11-04T07:46:09;23.70;58.60
32027;DHT22;18543;50.848;4.596;2022-11-04T07:48:36;23.70;58.60
32027;DHT22;18543;50.848;4.596;2022-11-04T07:51:08;23.70;58.60
32027;DHT22;18543;50.848;4.596;2022-11-04T07:53:37;23.80;58.60
32027;DHT22;18543;50.848;4.596;2022-11-04T07:56:05;23.70;58.60
32027;DHT22;18543;50.848;4.596;2022-11-04T07:58:33;23.70;58.60
32027;DHT22;18543;50.848;4.596;2022-11-04T08:01:05;23.70;58.60
32027;DHT22;18543;50.848;4.596;2022-11-04T08:03:33;23.70;58.10
32027;DHT22;18543;50.848;4.596;2022-11-04T08:06:02;23.70;56.70
32027;DHT22;18543;50.848;4.596;2022-11-04T08:08:29;23.40;55.50
32027;DHT22;18543;50.848;4.596;2022-11-04T08:11:00;23.20;55.80
32027;DHT22;18543;50.848;4.596;2022-11-04T08:13:34;23.10;56.50
32027;DHT22;18543;50.848;4.596;2022-11-04T08:16:06;23.10;56.80
32027;DHT22;18543;50.848;4.596;2022-11-04T08:18:35;23.10;56.70
32027;DHT22;18543;50.848;4.596;2022-11-04T08:21:03;23.10;57.30
32027;DHT22;18543;50.848;4.596;2022-11-04T08:23:31;23.10;56.70
32027;DHT22;18543;50.848;4.596;2022-11-04T08:25:58;23.10;56.70
32027;DHT22;18543;50.848;4.596;2022-11-04T08:28:26;23.10;56.60
32027;DHT22;18543;50.848;4.596;2022-11-04T08:33:23;23.20;56.50
32027;DHT22;18543;50.848;4.596;2022-11-04T08:35:51;23.20;56.40
32027;DHT22;18543;50.848;4.596;2022-11-04T08:38:18;23.20;56.30
32027;DHT22;18543;50.848;4.596;2022-11-04T08:40:45;23.20;56.40
32027;DHT22;18543;50.848;4.596;2022-11-04T08:43:13;23.20;56.20
32027;DHT22;18543;50.848;4.596;2022-11-04T08:45:42;23.20;56.20
32027;DHT22;18543;50.848;4.596;2022-11-04T08:48:10;23.20;56.70
32027;DHT22;18543;50.848;4.596;2022-11-04T08:50:38;23.20;56.10
32027;DHT22;18543;50.848;4.596;2022-11-04T08:53:05;23.20;56.10
32027;DHT22;18543;50.848;4.596;2022-11-04T08:55:33;23.20;56.10
32027;DHT22;18543;50.848;4.596;2022-11-04T08:58:01;23.20;56.10
32027;DHT22;18543;50.848;4.596;2022-11-04T09:00:29;23.20;56.10
32027;DHT22;18543;50.848;4.596;2022-11-04T09:02:56;23.20;56.10
32027;DHT22;18543;50.848;4.596;2022-11-04T09:05:23;23.20;56.10
32027;DHT22;18543;50.848;4.596;2022-11-04T09:07:51;23.20;56.00
32027;DHT22;18543;50.848;4.596;2022-11-04T09:10:18;23.20;56.00
32027;DHT22;18543;50.848;4.596;2022-11-04T09:12:46;23.20;56.00
32027;DHT22;18543;50.848;4.596;2022-11-04T09:15:12;23.20;56.10
32027;DHT22;18543;50.848;4.596;2022-11-04T09:17:40;23.20;56.20
32027;DHT22;18543;50.848;4.596;2022-11-04T09:20:07;23.20;56.40
32027;DHT22;18543;50.848;4.596;2022-11-04T09:22:34;23.00;55.60
32027;DHT22;18543;50.848;4.596;2022-11-04T09:25:01;22.80;57.20
32027;DHT22;18543;50.848;4.596;2022-11-04T09:27:28;22.80;57.20
32027;DHT22;18543;50.848;4.596;2022-11-04T09:29:55;22.90;57.30
32027;DHT22;18543;50.848;4.596;2022-11-04T09:32:22;22.90;57.20
32027;DHT22;18543;50.848;4.596;2022-11-04T09:34:49;23.10;57.10
32027;DHT22;18543;50.848;4.596;2022-11-04T09:37:15;23.10;56.90
32027;DHT22;18543;50.848;4.596;2022-11-04T09:39:42;23.20;56.90
32027;DHT22;18543;50.848;4.596;2022-11-04T09:45:12;23.20;56.80
32027;DHT22;18543;50.848;4.596;2022-11-04T09:47:50;23.20;56.70
32027;DHT22;18543;50.848;4.596;2022-11-04T09:50:24;23.20;56.70
32027;DHT22;18543;50.848;4.596;2022-11-04T09:52:59;23.20;56.70
32027;DHT22;18543;50.848;4.596;2022-11-04T09:55:37;23.30;56.70
32027;DHT22;18543;50.848;4.596;2022-11-04T09:58:11;23.30;56.60
32027;DHT22;18543;50.848;4.596;2022-11-04T10:00:39;23.30;56.60
32027;DHT22;18543;50.848;4.596;2022-11-04T10:03:22;23.30;56.80
32027;DHT22;18543;50.848;4.596;2022-11-04T10:06:28;23.30;56.70
32027;DHT22;18543;50.848;4.596;2022-11-04T10:08:59;23.40;56.80
32027;DHT22;18543;50.848;4.596;2022-11-04T10:12:11;23.30;56.90
32027;DHT22;18543;50.848;4.596;2022-11-04T10:23:22;23.40;57.40
32027;DHT22;18543;50.848;4.596;2022-11-04T10:28:41;23.40;57.50
32027;DHT22;18543;50.848;4.596;2022-11-04T10:31:17;23.40;57.50
32027;DHT22;18543;50.848;4.596;2022-11-04T10:34:06;23.50;57.50
32027;DHT22;18543;50.848;4.596;2022-11-04T10:36:35;23.50;57.60
32027;DHT22;18543;50.848;4.596;2022-11-04T10:39:10;23.50;57.60
32027;DHT22;18543;50.848;4.596;2022-11-04T10:41:40;23.50;57.60
32027;DHT22;18543;50.848;4.596;2022-11-04T10:44:24;23.40;58.20
32027;DHT22;18543;50.848;4.596;2022-11-04T10:53:00;23.30;57.00
32027;DHT22;18543;50.848;4.596;2022-11-04T10:55:34;23.20;57.20
32027;DHT22;18543;50.848;4.596;2022-11-04T10:58:15;23.00;56.50
32027;DHT22;18543;50.848;4.596;2022-11-04T11:00:42;22.70;56.50
32027;DHT22;18543;50.848;4.596;2022-11-04T11:03:31;22.60;56.90
32027;DHT22;18543;50.848;4.596;2022-11-04T11:08:47;22.20;57.40
32027;DHT22;18543;50.848;4.596;2022-11-04T11:11:17;22.10;57.80
32027;DHT22;18543;50.848;4.596;2022-11-04T11:13:59;22.00;58.20
32027;DHT22;18543;50.848;4.596;2022-11-04T11:16:27;22.00;58.30
32027;DHT22;18543;50.848;4.596;2022-11-04T11:21:54;21.70;57.80
32027;DHT22;18543;50.848;4.596;2022-11-04T11:24:26;21.30;58.50
32027;DHT22;18543;50.848;4.596;2022-11-04T11:26:57;21.10;59.30
32027;DHT22;18543;50.848;4.596;2022-11-04T11:29:30;20.90;59.80
32027;DHT22;18543;50.848;4.596;2022-11-04T11:32:32;21.00;60.30
32027;DHT22;18543;50.848;4.596;2022-11-04T11:35:01;21.10;60.20
32027;DHT22;18543;50.848;4.596;2022-11-04T11:37:38;21.20;60.20
32027;DHT22;18543;50.848;4.596;2022-11-04T11:40:32;21.20;60.20
32027;DHT22;18543;50.848;4.596;2022-11-04T11:43:02;21.30;60.00
32027;DHT22;18543;50.848;4.596;2022-11-04T11:45:31;21.30;60.00
32027;DHT22;18543;50.848;4.596;2022-11-04T11:47:58;21.40;59.90
32027;DHT22;18543;50.848;4.596;2022-11-04T11:50:27;21.50;59.90
32027;DHT22;18543;50.848;4.596;2022-11-04T11:53:15;21.50;59.80
32027;DHT22;18543;50.848;4.596;2022-11-04T11:58:45;21.60;59.70
32027;DHT22;18543;50.848;4.596;2022-11-04T12:01:43;21.60;59.70
32027;DHT22;18543;50.848;4.596;2022-11-04T12:04:12;21.70;59.70
32027;DHT22;18543;50.848;4.596;2022-11-04T12:10:49;21.80;59.60
32027;DHT22;18543;50.848;4.596;2022-11-04T12:13:26;21.80;59.50
32027;DHT22;18543;50.848;4.596;2022-11-04T12:16:24;21.80;59.60
32027;DHT22;18543;50.848;4.596;2022-11-04T12:27:45;21.10;60.60
32027;DHT22;18543;50.848;4.596;2022-11-04T12:30:19;21.20;61.10
32027;DHT22;18543;50.848;4.596;2022-11-04T12:44:39;21.70;60.30
32027;DHT22;18543;50.848;4.596;2022-11-04T12:55:48;22.20;59.50
32027;DHT22;18543;50.848;4.596;2022-11-04T12:58:29;22.20;59.40
32027;DHT22;18543;50.848;4.596;2022-11-04T13:01:36;22.30;59.30
32027;DHT22;18543;50.848;4.596;2022-11-04T13:04:15;22.40;59.30
32027;DHT22;18543;50.848;4.596;2022-11-04T13:07:14;22.40;59.20
32027;DHT22;18543;50.848;4.596;2022-11-04T13:09:58;22.50;59.10
32027;DHT22;18543;50.848;4.596;2022-11-04T13:12:41;22.50;59.10
32027;DHT22;18543;50.848;4.596;2022-11-04T13:15:19;22.60;59.00
32027;DHT22;18543;50.848;4.596;2022-11-04T13:17:56;22.60;59.00
32027;DHT22;18543;50.848;4.596;2022-11-04T13:21:03;22.70;59.10
32027;DHT22;18543;50.848;4.596;2022-11-04T13:24:03;22.70;59.00
32027;DHT22;18543;50.848;4.596;2022-11-04T13:26:31;22.80;59.00
32027;DHT22;18543;50.848;4.596;2022-11-04T13:29:09;22.80;59.00
32027;DHT22;18543;50.848;4.596;2022-11-04T13:31:52;22.80;58.90
32027;DHT22;18543;50.848;4.596;2022-11-04T13:34:36;22.80;58.90
32027;DHT22;18543;50.848;4.596;2022-11-04T13:40:02;22.80;58.90
32027;DHT22;18543;50.848;4.596;2022-11-04T13:42:53;22.90;59.00
32027;DHT22;18543;50.848;4.596;2022-11-04T13:45:49;22.90;59.00
32027;DHT22;18543;50.848;4.596;2022-11-04T13:48:24;22.90;58.90
32027;DHT22;18543;50.848;4.596;2022-11-04T13:51:05;22.90;58.90
32027;DHT22;18543;50.848;4.596;2022-11-04T13:53:52;22.90;58.90
32027;DHT22;18543;50.848;4.596;2022-11-04T13:56:27;22.90;58.90
32027;DHT22;18543;50.848;4.596;2022-11-04T14:01:42;22.90;58.80
32027;DHT22;18543;50.848;4.596;2022-11-04T14:06:59;23.00;58.70
32027;DHT22;18543;50.848;4.596;2022-11-04T14:14:41;22.80;59.10
32027;DHT22;18543;50.848;4.596;2022-11-04T14:20:26;22.80;58.10
32027;DHT22;18543;50.848;4.596;2022-11-04T14:22:56;22.60;57.80
32027;DHT22;18543;50.848;4.596;2022-11-04T14:28:15;22.50;57.80
32027;DHT22;18543;50.848;4.596;2022-11-04T14:30:49;22.50;58.10
32027;DHT22;18543;50.848;4.596;2022-11-04T14:41:52;22.40;58.00
32027;DHT22;18543;50.848;4.596;2022-11-04T14:44:33;22.40;58.10
32027;DHT22;18543;50.848;4.596;2022-11-04T14:49:46;22.30;57.60
32027;DHT22;18543;50.848;4.596;2022-11-04T14:54:48;22.20;58.80
32027;DHT22;18543;50.848;4.596;2022-11-04T14:57:20;22.20;58.90
32027;DHT22;18543;50.848;4.596;2022-11-04T14:59:47;22.20;58.80
32027;DHT22;18543;50.848;4.596;2022-11-04T15:02:27;22.20;58.80
32027;DHT22;18543;50.848;4.596;2022-11-04T15:04:59;22.20;59.20
32027;DHT22;18543;50.848;4.596;2022-11-04T15:07:37;22.20;58.60
32027;DHT22;18543;50.848;4.596;2022-11-04T15:10:21;22.20;58.40
32027;DHT22;18543;50.848;4.596;2022-11-04T15:12:51;22.30;58.50
32027;DHT22;18543;50.848;4.596;2022-11-04T15:18:07;22.30;58.80
32027;DHT22;18543;50.848;4.596;2022-11-04T15:20:40;22.30;58.30
32027;DHT22;18543;50.848;4.596;2022-11-04T15:23:14;22.30;57.80
32027;DHT22;18543;50.848;4.596;2022-11-04T15:25:48;22.30;57.30
32027;DHT22;18543;50.848;4.596;2022-11-04T15:28:26;22.20;56.10
32027;DHT22;18543;50.848;4.596;2022-11-04T15:31:03;22.10;55.60
32027;DHT22;18543;50.848;4.596;2022-11-04T15:33:37;21.90;55.30
32027;DHT22;18543;50.848;4.596;2022-11-04T15:36:08;21.80;55.50
32027;DHT22;18543;50.848;4.596;2022-11-04T15:38:40;21.70;55.40
32027;DHT22;18543;50.848;4.596;2022-11-04T15:41:10;21.60;55.30
32027;DHT22;18543;50.848;4.596;2022-11-04T15:44:05;21.60;55.60
32027;DHT22;18543;50.848;4.596;2022-11-04T15:46:33;21.70;56.20
32027;DHT22;18543;50.848;4.596;2022-11-04T15:49:05;21.70;56.30
32027;DHT22;18543;50.848;4.596;2022-11-04T15:51:36;21.80;56.40
32027;DHT22;18543;50.848;4.596;2022-11-04T15:54:22;21.80;56.30
32027;DHT22;18543;50.848;4.596;2022-11-04T15:56:53;21.90;56.30
32027;DHT22;18543;50.848;4.596;2022-11-04T15:59:28;22.10;56.50
32027;DHT22;18543;50.848;4.596;2022-11-04T16:01:57;22.20;56.50
32027;DHT22;18543;50.848;4.596;2022-11-04T16:04:27;22.20;56.50
32027;DHT22;18543;50.848;4.596;2022-11-04T16:09:48;22.30;56.50
32027;DHT22;18543;50.848;4.596;2022-11-04T16:12:24;22.40;56.50
32027;DHT22;18543;50.848;4.596;2022-11-04T16:14:55;22.40;56.40
32027;DHT22;18543;50.848;4.596;2022-11-04T16:17:24;22.50;56.50
32027;DHT22;18543;50.848;4.596;2022-11-04T16:20:03;22.50;56.50
32027;DHT22;18543;50.848;4.596;2022-11-04T16:22:33;22.50;56.40
32027;DHT22;18543;50.848;4.596;2022-11-04T16:25:04;22.50;56.40
32027;DHT22;18543;50.848;4.596;2022-11-04T16:27:33;22.50;56.50
32027;DHT22;18543;50.848;4.596;2022-11-04T16:30:19;22.60;56.40
32027;DHT22;18543;50.848;4.596;2022-11-04T16:32:51;22.60;56.50
32027;DHT22;18543;50.848;4.596;2022-11-04T16:35:24;22.60;56.50
32027;DHT22;18543;50.848;4.596;2022-11-04T16:37:53;22.60;56.40
32027;DHT22;18543;50.848;4.596;2022-11-04T16:40:22;22.60;56.50
32027;DHT22;18543;50.848;4.596;2022-11-04T16:42:50;22.60;56.40
32027;DHT22;18543;50.848;4.596;2022-11-04T16:45:33;22.60;56.90
32027;DHT22;18543;50.848;4.596;2022-11-04T16:48:01;22.60;56.30
32027;DHT22;18543;50.848;4.596;2022-11-04T16:50:28;22.60;56.40
32027;DHT22;18543;50.848;4.596;2022-11-04T16:52:58;22.60;56.40
32027;DHT22;18543;50.848;4.596;2022-11-04T16:55:25;22.60;56.40
32027;DHT22;18543;50.848;4.596;2022-11-04T16:57:59;22.60;56.40
32027;DHT22;18543;50.848;4.596;2022-11-04T17:00:27;22.60;56.40
32027;DHT22;18543;50.848;4.596;2022-11-04T17:02:55;22.60;56.40
32027;DHT22;18543;50.848;4.596;2022-11-04T17:05:21;22.70;56.40
32027;DHT22;18543;50.848;4.596;2022-11-04T17:07:49;22.60;56.40
32027;DHT22;18543;50.848;4.596;2022-11-04T17:10:25;22.70;56.40
32027;DHT22;18543;50.848;4.596;2022-11-04T17:12:52;22.60;56.40
32027;DHT22;18543;50.848;4.596;2022-11-04T17:15:19;22.70;56.50
32027;DHT22;18543;50.848;4.596;2022-11-04T17:17:46;22.70;56.40
32027;DHT22;18543;50.848;4.596;2022-11-04T17:20:16;22.70;56.50
32027;DHT22;18543;50.848;4.596;2022-11-04T17:22:44;22.60;56.40
32027;DHT22;18543;50.848;4.596;2022-11-04T17:27:43;22.70;56.50
32027;DHT22;18543;50.848;4.596;2022-11-04T17:30:11;22.70;56.40
32027;DHT22;18543;50.848;4.596;2022-11-04T17:32:43;22.60;56.40
32027;DHT22;18543;50.848;4.596;2022-11-04T17:35:10;22.70;56.50
32027;DHT22;18543;50.848;4.596;2022-11-04T17:37:37;22.70;56.50
32027;DHT22;18543;50.848;4.596;2022-11-04T17:40:06;22.60;56.50
32027;DHT22;18543;50.848;4.596;2022-11-04T17:42:33;22.60;56.40
32027;DHT22;18543;50.848;4.596;2022-11-04T17:45:18;22.60;56.40
32027;DHT22;18543;50.848;4.596;2022-11-04T17:47:47;22.70;56.40
32027;DHT22;18543;50.848;4.596;2022-11-04T17:50:14;22.70;56.50
32027;DHT22;18543;50.848;4.596;2022-11-04T17:52:44;22.60;56.40
32027;DHT22;18543;50.848;4.596;2022-11-04T17:55:15;22.60;56.50
32027;DHT22;18543;50.848;4.596;2022-11-04T17:57:46;22.70;56.40
32027;DHT22;18543;50.848;4.596;2022-11-04T18:00:13;22.70;56.50
32027;DHT22;18543;50.848;4.596;2022-11-04T18:02:40;22.60;56.30
32027;DHT22;18543;50.848;4.596;2022-11-04T18:05:13;22.70;56.40
32027;DHT22;18543;50.848;4.596;2022-11-04T18:07:40;22.60;56.40
32027;DHT22;18543;50.848;4.596;2022-11-04T18:10:08;22.60;56.20
32027;DHT22;18543;50.848;4.596;2022-11-04T18:12:37;22.60;56.20
32027;DHT22;18543;50.848;4.596;2022-11-04T18:15:14;22.70;56.30
32027;DHT22;18543;50.848;4.596;2022-11-04T18:17:45;22.70;56.30
32027;DHT22;18543;50.848;4.596;2022-11-04T18:20:13;22.70;56.30
32027;DHT22;18543;50.848;4.596;2022-11-04T18:22:42;22.60;56.20